Terminal Aerodrome Forecast
Issued by NWS Brownsville, TX

Home | Current Version | Previous Version | Text Only | Print | Product List | Glossary On
Versions: 1 2 3 4 5 6 7 8 9 10 11 12 13 14 15 16 17 18 19 20
375
FTUS44 KBRO 301124
TAFMFE
TAF
KMFE 301124Z 3012/0112 15007KT 4SM BR OVC010
     FM301400 17007KT 6SM HZ BKN020
     FM301700 03008KT 6SM HZ BKN025
     FM010000 11010KT 6SM HZ BKN020=

USA.gov is the U.S. government's official web portal to all federal, state and local government web resources and services.